Golden Beach, FL

10:21 AM EDT on September 02, 2015 (GMT -0400)
Skylake | | Change Station
CLOSE
Current Station
Personal Weather Station
Location: North Miami Beach, FL
Elevation: 30 ft
Nearby Weather Stations

Elev 30 ft 25.95 °N, 80.16 °W | Updated 8 minutes ago

Overcast
Overcast
83.8 °F
Feels Like 96 °F
N
0.0
Wind Variable Wind from West

Today
High -- | Low -- °F
--% Chance of Precip.
Yesterday
High -- | Low -- °F
Precip. -- in
7:01 AM 7:39 PM
Waning Gibbous, 80% visible
Pressure 30.09 in
Visibility 7.0 miles
Clouds Few 2500 ft
Mostly Cloudy 3900 ft
Overcast 8000 ft
Heat Index 96 °F
Dew Point 80 °F
Humidity 87%
Rainfall 0.55 in
Snow Depth Not available.
UV 2 out of 12
Pollen 4.00 out of 12
Air Quality Not available.
Flu Activity Not available.
METAR KFLL 021353Z COR 05005KT 7SM -RA BR FEW025TCU BKN039 OVC080 27/25 A3009 RMK AO2 RAB37 SLP188 TCU NE P0004 T02720250
Pressure 30.09 in
Visibility 7.0 miles
Clouds Few 2500 ft
Mostly Cloudy 3900 ft
Overcast 8000 ft
Heat Index 96 °F
Dew Point 80 °F
Humidity 87%
Rainfall 0.55 in
Snow Depth Not available.
UV 2 out of 12
Pollen 4.00 out of 12
Air Quality Not available.
Flu Activity Not available.
METAR KFLL 021353Z COR 05005KT 7SM -RA BR FEW025TCU BKN039 OVC080 27/25 A3009 RMK AO2 RAB37 SLP188 TCU NE P0004 T02720250

10-Day Weather Forecast

×

Almanac

Astronomy

Sep. 02, 2015 Rise Set
Actual Time
Civil Twilight
Nautical Twilight
Astronomical Twilight
Moon
Length of Visible Light
Length of Day
Tomorrow will be .
, % of the Moon is Illuminated

Today's Extremes

State Highs State Lows

Community

WunderPhotos

Upload Photos

1,851,763 photos uploaded!

WunderBlogs® & News

Nearby

Air Quality

  Air Quality AQ Index Pollutant
Not available.

Snow Depth

Station Depth Elevation

Earthquake Activity

City Distance Mag. Time & Date
Minimum magnitude displayed is 2.5.

Coastal Water Temperatures

Place Temperature

Stations

Nearby Weather Stations

Station Location Temp. Windchill Dew Point Humidity Wind Precip. Elev Updated Type